Time;durP1;ratioP1;P1;durP2;ratioP2;P2;SDS_P1;SDS_P2;PMS_P1;PMS_P2;Temp;Humidity;BMP_temperature;BMP_pressure;BME280_temperature;BME280_humidity;BME280_pressure;Samples;Min_cycle;Max_cycle;Signal;HPM_P1;HPM_P2
2024/04/15 00:01:20;;;;;;;15.45;2.15;;;;;;;;;;4454670;32;20030;-62
2024/04/15 00:03:45;;;;;;;;;;;;;;;;;;4453168;32;20385;-63
2024/04/15 00:06:10;;;;;;;8.25;2.15;;;;;;;;;;4454251;32;19947;-63
2024/04/15 00:08:36;;;;;;;6.47;2.45;;;;;;;;;;4454620;32;20025;-63
2024/04/15 00:11:01;;;;;;;10.75;2.25;;;;;;;;;;4429580;32;20057;-63
2024/04/15 00:13:26;;;;;;;;;;;;;;;;;;4439743;32;20041;-62
2024/04/15 00:15:55;;;;;;;6.20;1.83;;;;;;;;;;4437971;32;19933;-64
2024/04/15 00:18:21;;;;;;;13.32;2.40;;;;;;;;;;4439425;32;20029;-63
2024/04/15 00:20:46;;;;;;;9.60;2.20;;;;;;;;;;4439374;32;20029;-62
2024/04/15 00:23:11;;;;;;;11.20;2.83;;;;;;;;;;4439093;32;20022;-63
2024/04/15 00:25:36;;;;;;;6.90;2.00;;;;;;;;;;4446586;32;20387;-63
2024/04/15 00:28:02;;;;;;;14.02;2.40;;;;;;;;;;4453843;32;20021;-63
2024/04/15 00:30:27;;;;;;;11.75;2.72;;;;;;;;;;4454293;32;20052;-63
2024/04/15 00:32:52;;;;;;;;;;;;;;;;;;4455017;32;20034;-63
2024/04/15 00:35:17;;;;;;;9.63;2.65;;;;;;;;;;4452792;32;19933;-63
2024/04/15 00:37:42;;;;;;;12.90;2.65;;;;;;;;;;4452466;32;20049;-63
2024/04/15 00:40:07;;;;;;;;;;;;;;;;;;4447529;32;20033;-62
2024/04/15 00:42:33;;;;;;;12.77;2.58;;;;;;;;;;4445107;32;19984;-63
2024/04/15 00:44:58;;;;;;;;;;;;;;;;;;4435871;32;20144;-62
2024/04/15 00:47:23;;;;;;;11.27;2.65;;;;;;;;;;4437037;32;19932;-63
2024/04/15 00:49:49;;;;;;;9.05;2.58;;;;;;;;;;4436642;32;20117;-63
2024/04/15 00:52:15;;;;;;;13.55;2.95;;;;;;;;;;4437133;32;20327;-62
2024/04/15 00:54:42;;;;;;;8.25;2.83;;;;;;;;;;4440231;32;20048;-63
2024/04/15 00:57:08;;;;;;;6.57;2.10;;;;;;;;;;4452762;32;20093;-63
2024/04/15 00:59:33;;;;;;;;;;;;;;;;;;4438603;32;20082;-63
2024/04/15 01:01:59;;;;;;;11.98;2.70;;;;;;;;;;4452373;32;19956;-62
2024/04/15 01:04:24;;;;;;;14.00;2.60;;;;;;;;;;4438832;32;20200;-62
2024/04/15 01:06:51;;;;;;;;;;;;;;;;;;4453863;32;20075;-63
2024/04/15 01:09:16;;;;;;;15.10;3.30;;;;;;;;;;4453257;32;19947;-63
2024/04/15 01:11:41;;;;;;;9.55;3.30;;;;;;;;;;4454001;32;20041;-62
2024/04/15 01:14:07;;;;;;;15.50;3.92;;;;;;;;;;4452220;32;20366;-63
2024/04/15 01:16:36;;;;;;;13.35;3.37;;;;;;;;;;4453669;32;20075;-64
2024/04/15 01:19:01;;;;;;;17.40;3.85;;;;;;;;;;4452817;32;20024;-64
2024/04/15 01:21:26;;;;;;;8.85;3.45;;;;;;;;;;4453847;32;20141;-63
2024/04/15 01:23:51;;;;;;;16.30;3.85;;;;;;;;;;4438675;32;20026;-64
2024/04/15 01:26:17;;;;;;;18.83;5.10;;;;;;;;;;4437648;32;20026;-63
2024/04/15 01:28:43;;;;;;;;;;;;;;;;;;4437233;32;20021;-63
2024/04/15 01:31:08;;;;;;;18.88;3.26;;;;;;;;;;4435249;32;20262;-63
2024/04/15 01:33:33;;;;;;;17.08;5.32;;;;;;;;;;4437112;32;20030;-63
2024/04/15 01:35:58;;;;;;;14.40;3.90;;;;;;;;;;4435899;32;20075;-63
2024/04/15 01:38:23;;;;;;;18.08;4.22;;;;;;;;;;4436449;32;20391;-66
2024/04/15 01:40:48;;;;;;;12.65;3.55;;;;;;;;;;4434738;32;20065;-63
2024/04/15 01:43:14;;;;;;;16.58;3.80;;;;;;;;;;4437549;32;20364;-63
2024/04/15 01:45:39;;;;;;;12.57;3.20;;;;;;;;;;4438399;32;20056;-63
2024/04/15 01:48:05;;;;;;;22.80;4.30;;;;;;;;;;4437732;32;20059;-62
2024/04/15 01:50:30;;;;;;;;;;;;;;;;;;4437825;32;20511;-62
2024/04/15 01:52:55;;;;;;;23.08;5.30;;;;;;;;;;4437301;32;19940;-63
2024/04/15 01:55:20;;;;;;;;;;;;;;;;;;4450812;32;20113;-62
2024/04/15 01:57:45;;;;;;;22.58;5.78;;;;;;;;;;4452885;32;19986;-62
2024/04/15 02:00:11;;;;;;;19.33;5.10;;;;;;;;;;4450763;32;20402;-62
2024/04/15 02:02:36;;;;;;;15.90;4.30;;;;;;;;;;4452038;32;20146;-62
2024/04/15 02:05:02;;;;;;;22.70;4.72;;;;;;;;;;4451087;32;20025;-61
2024/04/15 02:07:27;;;;;;;24.23;4.12;;;;;;;;;;4452584;32;20425;-64
2024/04/15 02:09:52;;;;;;;17.65;4.12;;;;;;;;;;4452164;32;20025;-63
2024/04/15 02:12:17;;;;;;;;;;;;;;;;;;4451845;32;20398;-63
2024/04/15 02:14:42;;;;;;;15.57;3.97;;;;;;;;;;4436741;32;19947;-63
2024/04/15 02:17:08;;;;;;;22.67;4.50;;;;;;;;;;4451550;32;20018;-64
2024/04/15 02:19:33;;;;;;;18.67;4.70;;;;;;;;;;4438519;32;20052;-63
2024/04/15 02:21:58;;;;;;;;;;;;;;;;;;4436637;32;20052;-63
2024/04/15 02:24:23;;;;;;;12.37;4.20;;;;;;;;;;4434182;32;19937;-62
2024/04/15 02:26:49;;;;;;;19.17;4.70;;;;;;;;;;4437047;32;20071;-62
2024/04/15 02:29:14;;;;;;;;;;;;;;;;;;4436858;32;20121;-62
2024/04/15 02:31:39;;;;;;;22.42;4.45;;;;;;;;;;4435904;32;19987;-62
2024/04/15 02:34:04;;;;;;;24.00;4.28;;;;;;;;;;4449175;32;20391;-62
2024/04/15 02:36:29;;;;;;;19.42;4.55;;;;;;;;;;4450292;32;20088;-63
2024/04/15 02:38:54;;;;;;;16.10;5.05;;;;;;;;;;4436331;32;20052;-63
2024/04/15 02:41:20;;;;;;;15.00;4.03;;;;;;;;;;4437944;32;20078;-63
2024/04/15 02:43:45;;;;;;;;;;;;;;;;;;4449845;32;20048;-63
2024/04/15 02:46:10;;;;;;;20.17;4.28;;;;;;;;;;4452293;32;19967;-64
2024/04/15 02:48:35;;;;;;;;;;;;;;;;;;4451801;32;20191;-63
2024/04/15 02:51:01;;;;;;;20.45;4.50;;;;;;;;;;4451033;32;19940;-65
2024/04/15 02:53:26;;;;;;;18.35;7.62;;;;;;;;;;4437328;32;20055;-63
2024/04/15 02:55:53;;;;;;;17.65;4.07;;;;;;;;;;4437606;32;20029;-63
2024/04/15 02:58:19;;;;;;;18.48;4.45;;;;;;;;;;4451189;32;20451;-62
2024/04/15 03:00:44;;;;;;;14.38;4.07;;;;;;;;;;4450592;32;20033;-63
2024/04/15 03:03:09;;;;;;;16.85;4.37;;;;;;;;;;4451972;32;20121;-63
2024/04/15 03:05:39;;;;;;;13.98;4.10;;;;;;;;;;4452092;32;20033;-63
2024/04/15 03:08:05;;;;;;;18.17;4.78;;;;;;;;;;4437027;32;20017;-63
2024/04/15 03:10:30;;;;;;;13.75;4.85;;;;;;;;;;4438617;32;20085;-62
2024/04/15 03:12:55;;;;;;;22.30;4.50;;;;;;;;;;4450324;32;20442;-62
2024/04/15 03:15:21;;;;;;;16.67;4.70;;;;;;;;;;4451938;32;20367;-64
2024/04/15 03:17:46;;;;;;;;;;;;;;;;;;4442977;32;20084;-63
2024/04/15 03:20:12;;;;;;;21.10;6.82;;;;;;;;;;4435028;32;19937;-63
2024/04/15 03:22:37;;;;;;;23.12;5.65;;;;;;;;;;4436149;32;20038;-66
2024/04/15 03:25:02;;;;;;;17.08;5.62;;;;;;;;;;4434847;32;20059;-66
2024/04/15 03:27:28;;;;;;;22.42;6.70;;;;;;;;;;4436267;32;20037;-66
2024/04/15 03:29:53;;;;;;;22.67;7.30;;;;;;;;;;4435801;32;20411;-66
2024/04/15 03:32:18;;;;;;;22.52;6.72;;;;;;;;;;4428394;32;20057;-66
2024/04/15 03:34:43;;;;;;;23.08;6.78;;;;;;;;;;4434018;32;20037;-66
2024/04/15 03:37:08;;;;;;;;;;;;;;;;;;4435705;32;20041;-66
2024/04/15 03:39:33;;;;;;;23.77;6.20;;;;;;;;;;4436352;32;19953;-65
2024/04/15 03:41:59;;;;;;;10.68;4.22;;;;;;;;;;4435351;32;20053;-65
2024/04/15 03:44:24;;;;;;;13.98;4.28;;;;;;;;;;4434731;32;20022;-65
2024/04/15 03:46:49;;;;;;;18.77;5.80;;;;;;;;;;4440649;32;20053;-65
2024/04/15 03:49:14;;;;;;;;;;;;;;;;;;4449780;32;20037;-65
2024/04/15 03:51:39;;;;;;;19.62;5.20;;;;;;;;;;4451429;32;19941;-64
2024/04/15 03:54:04;;;;;;;22.05;6.25;;;;;;;;;;4451326;32;20067;-66
2024/04/15 03:56:30;;;;;;;;;;;;;;;;;;4451535;32;20092;-64
2024/04/15 03:58:55;;;;;;;23.12;14.98;;;;;;;;;;4450712;32;20282;-64
2024/04/15 04:01:20;;;;;;;21.27;5.57;;;;;;;;;;4451642;32;20052;-65
2024/04/15 04:03:45;;;;;;;;;;;;;;;;;;4435976;32;20025;-65
2024/04/15 04:06:10;;;;;;;20.27;5.78;;;;;;;;;;4450973;32;20046;-65
2024/04/15 04:08:35;;;;;;;;;;;;;;;;;;4450360;32;20178;-66
2024/04/15 04:11:04;;;;;;;22.35;5.70;;;;;;;;;;4450897;32;19944;-64
2024/04/15 04:13:29;;;;;;;22.33;6.35;;;;;;;;;;4449445;32;20448;-65
2024/04/15 04:15:54;;;;;;;16.15;6.07;;;;;;;;;;4449365;32;20446;-63
2024/04/15 04:18:20;;;;;;;;;;;;;;;;;;4451791;32;20134;-63
2024/04/15 04:20:45;;;;;;;22.73;5.80;;;;;;;;;;4451308;32;20320;-63
2024/04/15 04:23:10;;;;;;;15.73;5.12;;;;;;;;;;4450214;32;20032;-63
2024/04/15 04:25:35;;;;;;;18.70;5.90;;;;;;;;;;4454000;32;20037;-63
2024/04/15 04:28:00;;;;;;;21.58;6.18;;;;;;;;;;4453700;32;20082;-62
2024/04/15 04:30:26;;;;;;;21.50;6.43;;;;;;;;;;4449893;32;20014;-63
2024/04/15 04:32:52;;;;;;;24.67;5.97;;;;;;;;;;4438379;32;20059;-63
2024/04/15 04:35:17;;;;;;;21.50;6.43;;;;;;;;;;4436451;32;20021;-63
2024/04/15 04:37:42;;;;;;;19.60;6.53;;;;;;;;;;4436615;32;20056;-64
2024/04/15 04:40:08;;;;;;;22.65;5.30;;;;;;;;;;4435778;32;20038;-63
2024/04/15 04:42:33;;;;;;;12.98;4.28;;;;;;;;;;4437233;32;20143;-63
2024/04/15 04:44:58;;;;;;;19.08;2.97;;;;;;;;;;4439871;32;20022;-63
2024/04/15 04:47:24;;;;;;;15.20;3.03;;;;;;;;;;4453576;32;20026;-63
2024/04/15 04:49:49;;;;;;;12.43;3.70;;;;;;;;;;4452880;32;20463;-64
2024/04/15 04:52:14;;;;;;;14.80;3.97;;;;;;;;;;4452830;32;20461;-63
2024/04/15 04:54:40;;;;;;;;;;;;;;;;;;4452720;32;20052;-63
2024/04/15 04:57:05;;;;;;;16.60;5.95;;;;;;;;;;4454035;32;19942;-64
2024/04/15 04:59:30;;;;;;;;;;;;;;;;;;4453927;32;20116;-65
2024/04/15 05:01:55;;;;;;;12.50;3.85;;;;;;;;;;4436633;32;19932;-63
2024/04/15 05:04:21;;;;;;;13.60;3.95;;;;;;;;;;4436769;32;20090;-63
2024/04/15 05:06:46;;;;;;;;;;;;;;;;;;4435798;32;20030;-62
2024/04/15 05:09:11;;;;;;;11.85;7.37;;;;;;;;;;4436697;32;19951;-64
2024/04/15 05:11:36;;;;;;;17.33;2.87;;;;;;;;;;4437065;32;20050;-63
2024/04/15 05:14:02;;;;;;;11.40;3.42;;;;;;;;;;4435894;32;20126;-63
2024/04/15 05:16:27;;;;;;;;;;;;;;;;;;4450212;32;20208;-62
2024/04/15 05:18:52;;;;;;;14.77;4.07;;;;;;;;;;4451454;32;19953;-62
2024/04/15 05:21:17;;;;;;;16.12;4.22;;;;;;;;;;4452635;32;20372;-65
2024/04/15 05:23:42;;;;;;;;;;;;;;;;;;4437655;32;20048;-63
2024/04/15 05:26:08;;;;;;;14.85;3.85;;;;;;;;;;4451024;32;19995;-64
2024/04/15 05:28:33;;;;;;;11.18;3.60;;;;;;;;;;4452526;32;20025;-63
2024/04/15 05:30:58;;;;;;;17.58;4.32;;;;;;;;;;4435444;32;20029;-63
2024/04/15 05:33:23;;;;;;;;;;;;;;;;;;4453054;32;20052;-61
2024/04/15 05:35:48;;;;;;;17.45;9.23;;;;;;;;;;4450145;32;20371;-62
2024/04/15 05:38:14;;;;;;;18.85;5.75;;;;;;;;;;4451392;32;20022;-62
2024/04/15 05:40:39;;;;;;;;;;;;;;;;;;4452831;32;20061;-62
2024/04/15 05:43:08;;;;;;;16.58;4.30;;;;;;;;;;4452948;32;20030;-62
2024/04/15 05:45:37;;;;;;;13.38;3.53;;;;;;;;;;4452373;32;20136;-62
2024/04/15 05:48:02;;;;;;;14.70;5.00;;;;;;;;;;4436564;32;20052;-62
2024/04/15 05:50:28;;;;;;;12.85;3.78;;;;;;;;;;4450036;32;20046;-61
2024/04/15 05:52:53;;;;;;;11.88;3.80;;;;;;;;;;4436367;32;20034;-62
2024/04/15 05:55:18;;;;;;;;;;;;;;;;;;4452434;32;20029;-62
2024/04/15 05:57:43;;;;;;;14.82;3.55;;;;;;;;;;4437731;32;19951;-61
2024/04/15 06:00:09;;;;;;;14.20;4.10;;;;;;;;;;4452477;32;20350;-60
2024/04/15 06:02:34;;;;;;;19.10;5.28;;;;;;;;;;4450996;32;20477;-60
2024/04/15 06:04:59;;;;;;;17.98;3.83;;;;;;;;;;4434247;32;20065;-64
2024/04/15 06:07:24;;;;;;;;;;;;;;;;;;4445441;32;20512;-62
2024/04/15 06:09:50;;;;;;;13.38;9.32;;;;;;;;;;4424446;32;20361;-63
2024/04/15 06:12:15;;;;;;;12.40;4.55;;;;;;;;;;4436526;32;20029;-63
2024/04/15 06:14:41;;;;;;;;;;;;;;;;;;4436233;32;20052;-65
2024/04/15 06:17:06;;;;;;;10.75;3.70;;;;;;;;;;4421140;32;19936;-63
2024/04/15 06:19:31;;;;;;;;;;;;;;;;;;4441655;32;20166;-62
2024/04/15 06:21:58;;;;;;;14.87;4.18;;;;;;;;;;4446218;32;19981;-63
2024/04/15 06:24:23;;;;;;;15.07;4.37;;;;;;;;;;4449687;32;20059;-64
2024/04/15 06:26:49;;;;;;;9.57;3.17;;;;;;;;;;4450934;32;20029;-63
2024/04/15 06:29:14;;;;;;;12.18;2.87;;;;;;;;;;4438504;32;20105;-63
2024/04/15 06:31:39;;;;;;;11.75;2.95;;;;;;;;;;4447691;32;20416;-64
2024/04/15 06:34:04;;;;;;;12.37;3.05;;;;;;;;;;4436196;32;20330;-63
2024/04/15 06:36:30;;;;;;;10.68;3.00;;;;;;;;;;4452190;32;20540;-63
2024/04/15 06:38:55;;;;;;;16.50;3.47;;;;;;;;;;4433198;32;20461;-63
2024/04/15 06:41:20;;;;;;;6.80;2.12;;;;;;;;;;4435407;32;20029;-64
2024/04/15 06:43:45;;;;;;;12.80;3.22;;;;;;;;;;4420447;32;20468;-63
2024/04/15 06:46:11;;;;;;;6.22;2.67;;;;;;;;;;4435571;32;20030;-63
2024/04/15 06:48:36;;;;;;;;;;;;;;;;;;4434860;32;20029;-64
2024/04/15 06:51:02;;;;;;;11.85;2.97;;;;;;;;;;4434209;32;19950;-63
2024/04/15 06:53:27;;;;;;;9.70;2.40;;;;;;;;;;4449486;32;20063;-63
2024/04/15 06:55:52;;;;;;;10.43;2.92;;;;;;;;;;4449565;32;20103;-62
2024/04/15 06:58:17;;;;;;;11.90;3.08;;;;;;;;;;4434839;32;20022;-63
2024/04/15 07:00:42;;;;;;;11.70;3.05;;;;;;;;;;4435595;32;20101;-64
2024/04/15 07:03:08;;;;;;;11.27;3.58;;;;;;;;;;4438635;32;20021;-64
2024/04/15 07:05:33;;;;;;;;;;;;;;;;;;4429139;32;20056;-63
2024/04/15 07:08:00;;;;;;;11.85;3.50;;;;;;;;;;4435865;32;19937;-63
2024/04/15 07:10:25;;;;;;;10.90;3.53;;;;;;;;;;4435620;32;20076;-62
2024/04/15 07:12:50;;;;;;;17.55;3.45;;;;;;;;;;4434534;32;20161;-62
2024/04/15 07:15:16;;;;;;;11.88;3.28;;;;;;;;;;4435775;32;20052;-63
2024/04/15 07:17:41;;;;;;;12.10;3.90;;;;;;;;;;4422058;32;20034;-60
2024/04/15 07:20:07;;;;;;;21.17;4.87;;;;;;;;;;4425581;32;20097;-62
2024/04/15 07:22:32;;;;;;;12.98;3.03;;;;;;;;;;4451210;32;20120;-62
2024/04/15 07:25:02;;;;;;;16.60;3.60;;;;;;;;;;4450226;32;20025;-66
2024/04/15 07:27:35;;;;;;;17.98;4.78;;;;;;;;;;4447838;32;20112;-64
2024/04/15 07:30:01;;;;;;;20.17;5.28;;;;;;;;;;4434388;32;20133;-64
2024/04/15 07:32:26;;;;;;;15.27;3.28;;;;;;;;;;4432264;32;20490;-63
2024/04/15 07:34:51;;;;;;;;;;;;;;;;;;4434457;32;20072;-63
2024/04/15 07:37:16;;;;;;;11.43;2.95;;;;;;;;;;4447808;32;20000;-65
2024/04/15 07:39:41;;;;;;;14.48;3.70;;;;;;;;;;4449749;32;20020;-63
2024/04/15 07:42:07;;;;;;;;;;;;;;;;;;4452003;32;20077;-64
2024/04/15 07:44:32;;;;;;;20.30;4.78;;;;;;;;;;4449434;32;19944;-63
2024/04/15 07:46:57;;;;;;;14.60;3.87;;;;;;;;;;4441093;32;20030;-62
2024/04/15 07:49:22;;;;;;;17.90;4.75;;;;;;;;;;4435552;32;20041;-63
2024/04/15 07:51:47;;;;;;;17.20;4.37;;;;;;;;;;4436239;32;20387;-62
2024/04/15 07:54:13;;;;;;;17.02;5.30;;;;;;;;;;4434843;32;20063;-63
2024/04/15 07:56:38;;;;;;;13.30;3.87;;;;;;;;;;4435748;32;20275;-63
2024/04/15 07:59:04;;;;;;;11.73;4.12;;;;;;;;;;4435955;32;20025;-62
2024/04/15 08:01:29;;;;;;;12.98;3.80;;;;;;;;;;4447038;32;20029;-63
2024/04/15 08:03:54;;;;;;;15.13;3.87;;;;;;;;;;4439916;32;20370;-62
2024/04/15 08:06:19;;;;;;;13.95;4.50;;;;;;;;;;4439816;32;20065;-63
2024/04/15 08:08:45;;;;;;;20.33;4.22;;;;;;;;;;4438403;32;20187;-63
2024/04/15 08:11:10;;;;;;;16.60;4.12;;;;;;;;;;4437863;32;20112;-64
2024/04/15 08:13:35;;;;;;;;;;;;;;;;;;4437798;32;20447;-63
2024/04/15 08:16:01;;;;;;;18.50;5.35;;;;;;;;;;4446699;32;20019;-63
2024/04/15 08:18:26;;;;;;;14.13;3.50;;;;;;;;;;4431240;32;20026;-62
2024/04/15 08:20:55;;;;;;;16.77;4.53;;;;;;;;;;4444196;32;20048;-63
2024/04/15 08:23:20;;;;;;;13.88;3.33;;;;;;;;;;4436627;32;20101;-63
2024/04/15 08:25:55;;;;;;;8.48;2.90;;;;;;;;;;4437806;32;20029;-63
2024/04/15 08:28:21;;;;;;;15.73;3.75;;;;;;;;;;4424468;32;20066;-63
2024/04/15 08:30:46;;;;;;;12.23;3.45;;;;;;;;;;4442387;32;20064;-63
2024/04/15 08:33:11;;;;;;;10.20;3.37;;;;;;;;;;4444435;32;20179;-62
2024/04/15 08:35:38;;;;;;;12.55;3.87;;;;;;;;;;4431203;32;20053;-63
2024/04/15 08:38:03;;;;;;;13.80;4.00;;;;;;;;;;4439704;32;20029;-62
2024/04/15 08:40:28;;;;;;;;;;;;;;;;;;4442025;32;20030;-62
2024/04/15 08:42:54;;;;;;;14.35;4.00;;;;;;;;;;4436462;32;19951;-62
2024/04/15 08:45:21;;;;;;;15.18;4.07;;;;;;;;;;4437966;32;20170;-64
2024/04/15 08:47:50;;;;;;;12.90;3.85;;;;;;;;;;4449793;32;20356;-63
2024/04/15 08:50:15;;;;;;;15.73;3.37;;;;;;;;;;4454050;32;20046;-63
2024/04/15 08:52:42;;;;;;;;;;;;;;;;;;4452931;32;20085;-63
2024/04/15 08:55:07;;;;;;;12.25;4.05;;;;;;;;;;4452970;32;19940;-65
2024/04/15 08:57:33;;;;;;;13.98;3.47;;;;;;;;;;4452940;32;20059;-66
2024/04/15 08:59:59;;;;;;;10.35;3.47;;;;;;;;;;4437613;32;20045;-64
2024/04/15 09:02:24;;;;;;;14.40;3.78;;;;;;;;;;4439211;32;20026;-63
2024/04/15 09:04:49;;;;;;;11.48;3.72;;;;;;;;;;4441249;32;20061;-64
2024/04/15 09:07:15;;;;;;;14.00;3.20;;;;;;;;;;4445251;32;20074;-63
2024/04/15 09:09:40;;;;;;;;;;;;;;;;;;4424271;32;20458;-63
2024/04/15 09:12:06;;;;;;;11.73;3.47;;;;;;;;;;4436830;32;20367;-63
2024/04/15 09:14:31;;;;;;;13.00;2.83;;;;;;;;;;4453040;32;20025;-63
2024/04/15 09:16:56;;;;;;;16.85;3.37;;;;;;;;;;4443974;32;20383;-63
2024/04/15 09:19:22;;;;;;;9.25;2.80;;;;;;;;;;4437100;32;20021;-63
2024/04/15 09:21:47;;;;;;;;;;;;;;;;;;4438228;32;20350;-63
2024/04/15 09:24:12;;;;;;;15.50;3.58;;;;;;;;;;4436163;32;19936;-63
2024/04/15 09:26:37;;;;;;;;;;;;;;;;;;4437553;32;20275;-62
2024/04/15 09:29:03;;;;;;;14.82;3.15;;;;;;;;;;4449587;32;19933;-62
2024/04/15 09:31:28;;;;;;;12.77;3.47;;;;;;;;;;4451743;32;20062;-62
2024/04/15 09:33:53;;;;;;;14.55;2.85;;;;;;;;;;4446401;32;20048;-63
2024/04/15 09:36:18;;;;;;;10.65;3.70;;;;;;;;;;4435779;32;20021;-62
2024/04/15 09:38:44;;;;;;;10.23;2.65;;;;;;;;;;4437342;32;20064;-63
2024/04/15 09:41:10;;;;;;;10.02;4.32;;;;;;;;;;4435785;32;20026;-62
2024/04/15 09:43:36;;;;;;;11.82;3.42;;;;;;;;;;4436789;32;20078;-62
2024/04/15 09:46:01;;;;;;;;;;;;;;;;;;4451385;32;20018;-62
2024/04/15 09:48:27;;;;;;;12.32;6.40;;;;;;;;;;4451200;32;19932;-63
2024/04/15 09:50:54;;;;;;;23.38;21.45;;;;;;;;;;4450393;32;20303;-63
2024/04/15 09:53:27;;;;;;;11.95;3.97;;;;;;;;;;4452410;32;20051;-62
2024/04/15 09:55:55;;;;;;;17.20;4.00;;;;;;;;;;4451359;32;20025;-63
2024/04/15 09:58:26;;;;;;;12.85;3.35;;;;;;;;;;4450545;32;20068;-63
2024/04/15 10:00:51;;;;;;;13.27;3.05;;;;;;;;;;4452452;32;20064;-63
2024/04/15 10:03:21;;;;;;;15.23;7.65;;;;;;;;;;4452542;32;20098;-61
2024/04/15 10:05:50;;;;;;;14.32;7.15;;;;;;;;;;4438987;32;20166;-62
2024/04/15 10:08:15;;;;;;;12.18;5.15;;;;;;;;;;4444305;32;20033;-63
2024/04/15 10:10:41;;;;;;;;;;;;;;;;;;4435856;32;20398;-63
2024/04/15 10:13:07;;;;;;;11.68;4.45;;;;;;;;;;4442881;32;19955;-63
2024/04/15 10:15:33;;;;;;;14.82;4.82;;;;;;;;;;4450999;32;20033;-62
2024/04/15 10:17:58;;;;;;;20.27;4.00;;;;;;;;;;4450997;32;20306;-63
2024/04/15 10:20:28;;;;;;;18.10;11.95;;;;;;;;;;4452047;32;20021;-62
2024/04/15 10:22:57;;;;;;;9.68;3.85;;;;;;;;;;4451383;32;20077;-62
2024/04/15 10:25:22;;;;;;;14.87;9.23;;;;;;;;;;4450549;32;20017;-62
2024/04/15 10:27:47;;;;;;;13.98;4.82;;;;;;;;;;4452057;32;20091;-63
2024/04/15 10:30:19;;;;;;;13.35;3.50;;;;;;;;;;4452106;32;20048;-62
2024/04/15 10:32:47;;;;;;;14.32;6.18;;;;;;;;;;4452402;32;20037;-63
2024/04/15 10:35:22;;;;;;;17.00;4.97;;;;;;;;;;4438363;32;20397;-67
2024/04/15 10:37:51;;;;;;;13.77;6.78;;;;;;;;;;4436170;32;20020;-65
2024/04/15 10:40:19;;;;;;;17.30;5.03;;;;;;;;;;4452497;32;20045;-65
2024/04/15 10:42:45;;;;;;;19.00;7.12;;;;;;;;;;4438101;32;20045;-66
2024/04/15 10:45:15;;;;;;;17.25;9.23;;;;;;;;;;4447241;32;20029;-66
2024/04/15 10:47:40;;;;;;;19.12;12.77;;;;;;;;;;4436939;32;20072;-65
2024/04/15 10:50:08;;;;;;;10.38;4.65;;;;;;;;;;4435580;32;20442;-64
2024/04/15 10:52:33;;;;;;;21.40;11.75;;;;;;;;;;4436633;32;20059;-65
2024/04/15 10:54:58;;;;;;;;;;;;;;;;;;4435270;32;20033;-65
2024/04/15 10:57:24;;;;;;;10.63;5.12;;;;;;;;;;4439299;32;19932;-64
2024/04/15 10:59:49;;;;;;;12.80;5.53;;;;;;;;;;4437490;32;20084;-65
2024/04/15 11:02:14;;;;;;;;;;;;;;;;;;4451018;32;20093;-64
2024/04/15 11:04:40;;;;;;;23.05;14.60;;;;;;;;;;4452239;32;19977;-65
2024/04/15 11:07:05;;;;;;;19.05;5.97;;;;;;;;;;4451041;32;20025;-65
2024/04/15 11:09:30;;;;;;;14.40;5.15;;;;;;;;;;4436269;32;20446;-63
2024/04/15 11:11:55;;;;;;;;;;;;;;;;;;4436827;32;20294;-64
2024/04/15 11:14:20;;;;;;;11.38;3.83;;;;;;;;;;4436194;32;20016;-64
2024/04/15 11:16:46;;;;;;;18.65;5.05;;;;;;;;;;4434731;32;20346;-64
2024/04/15 11:19:11;;;;;;;13.55;4.07;;;;;;;;;;4438574;32;20066;-64
2024/04/15 11:21:38;;;;;;;;;;;;;;;;;;4440283;32;20114;-64
2024/04/15 11:24:03;;;;;;;12.18;5.47;;;;;;;;;;4448748;32;19941;-64
2024/04/15 11:26:36;;;;;;;31.50;29.08;;;;;;;;;;4449503;32;20063;-63
2024/04/15 11:29:01;;;;;;;11.85;4.45;;;;;;;;;;4436457;32;20037;-63
2024/04/15 11:31:27;;;;;;;12.93;7.82;;;;;;;;;;4435340;32;20109;-63
2024/04/15 11:33:52;;;;;;;7.70;3.50;;;;;;;;;;4432783;32;20307;-63
2024/04/15 11:36:18;;;;;;;11.00;4.95;;;;;;;;;;4435488;32;20026;-63
2024/04/15 11:38:43;;;;;;;12.07;7.93;;;;;;;;;;4435695;32;20385;-63
2024/04/15 11:41:09;;;;;;;;;;;;;;;;;;4435315;32;20161;-62
2024/04/15 11:43:36;;;;;;;11.73;2.58;;;;;;;;;;4432289;32;19936;-62
2024/04/15 11:46:01;;;;;;;17.42;11.85;;;;;;;;;;4451482;32;20379;-63
2024/04/15 11:48:27;;;;;;;7.00;2.37;;;;;;;;;;4450887;32;20025;-62
2024/04/15 11:50:53;;;;;;;9.15;5.22;;;;;;;;;;4450742;32;20155;-63
2024/04/15 11:53:19;;;;;;;10.77;3.33;;;;;;;;;;4441749;32;20033;-63
2024/04/15 11:55:44;;;;;;;14.00;4.25;;;;;;;;;;4433958;32;20079;-63
2024/04/15 11:58:09;;;;;;;13.88;8.88;;;;;;;;;;4434473;32;20423;-64
2024/04/15 12:00:34;;;;;;;12.82;4.85;;;;;;;;;;4434303;32;20034;-65
2024/04/15 12:03:00;;;;;;;9.38;6.82;;;;;;;;;;4434323;32;20054;-66
2024/04/15 12:05:25;;;;;;;;;;;;;;;;;;4434505;32;20037;-65
2024/04/15 12:07:50;;;;;;;19.83;18.05;;;;;;;;;;4432867;32;20030;-65
2024/04/15 12:10:15;;;;;;;15.15;6.30;;;;;;;;;;4433203;32;20051;-67
2024/04/15 12:12:41;;;;;;;14.10;4.68;;;;;;;;;;4443386;32;20100;-67
2024/04/15 12:15:09;;;;;;;4.87;4.18;;;;;;;;;;4451215;32;20328;-65
2024/04/15 12:17:35;;;;;;;18.08;16.33;;;;;;;;;;4450795;32;20426;-66
2024/04/15 12:20:02;;;;;;;10.45;4.37;;;;;;;;;;4448848;32;20076;-64
2024/04/15 12:22:27;;;;;;;10.85;8.93;;;;;;;;;;4435732;32;20109;-64
2024/04/15 12:24:53;;;;;;;;;;;;;;;;;;4449576;32;20025;-65
2024/04/15 12:27:18;;;;;;;10.10;2.65;;;;;;;;;;4439792;32;20318;-66
2024/04/15 12:29:43;;;;;;;5.03;2.53;;;;;;;;;;4433782;32;20041;-66
2024/04/15 12:32:08;;;;;;;;;;;;;;;;;;4434171;32;20336;-66
2024/04/15 12:34:35;;;;;;;11.20;9.13;;;;;;;;;;4433667;32;20238;-66
2024/04/15 12:37:00;;;;;;;8.00;2.95;;;;;;;;;;4435485;32;20033;-66
2024/04/15 12:39:25;;;;;;;;;;;;;;;;;;4419138;32;20076;-65
2024/04/15 12:41:50;;;;;;;3.85;2.05;;;;;;;;;;4435362;32;20006;-65
2024/04/15 12:44:15;;;;;;;;;;;;;;;;;;4435572;32;20132;-65
2024/04/15 12:46:41;;;;;;;11.35;2.40;;;;;;;;;;4436578;32;19965;-66
2024/04/15 12:49:07;;;;;;;5.78;2.35;;;;;;;;;;4437566;32;20113;-65
2024/04/15 12:51:32;;;;;;;;;;;;;;;;;;4437343;32;20021;-66
2024/04/15 12:53:57;;;;;;;8.25;2.87;;;;;;;;;;4436553;32;19936;-65
2024/04/15 12:56:23;;;;;;;8.82;1.70;;;;;;;;;;4432761;32;20029;-66
2024/04/15 12:58:48;;;;;;;13.00;2.25;;;;;;;;;;4422486;32;20025;-64
2024/04/15 13:01:13;;;;;;;;;;;;;;;;;;4436845;32;20051;-65
2024/04/15 13:03:39;;;;;;;11.95;3.55;;;;;;;;;;4438486;32;19952;-65
2024/04/15 13:06:04;;;;;;;;;;;;;;;;;;4436851;32;20124;-65
2024/04/15 13:08:29;;;;;;;8.43;2.78;;;;;;;;;;4438206;32;19933;-65
2024/04/15 13:10:56;;;;;;;5.45;2.17;;;;;;;;;;4443031;32;20438;-65
2024/04/15 13:13:21;;;;;;;9.80;3.15;;;;;;;;;;4453424;32;20099;-66
2024/04/15 13:15:46;;;;;;;;;;;;;;;;;;4437874;32;20026;-65
2024/04/15 13:18:11;;;;;;;12.25;6.62;;;;;;;;;;4453246;32;20279;-64
2024/04/15 13:20:37;;;;;;;8.57;2.60;;;;;;;;;;4453424;32;20055;-67
2024/04/15 13:23:02;;;;;;;10.82;3.42;;;;;;;;;;4453510;32;20066;-66
2024/04/15 13:25:27;;;;;;;;;;;;;;;;;;4447760;32;20025;-65
2024/04/15 13:27:52;;;;;;;15.98;8.30;;;;;;;;;;4422752;32;20261;-65
2024/04/15 13:30:17;;;;;;;;;;;;;;;;;;4422198;32;20526;-66
2024/04/15 13:32:43;;;;;;;15.35;13.82;;;;;;;;;;4421620;32;19979;-66
2024/04/15 13:35:08;;;;;;;;;;;;;;;;;;4423367;32;20525;-64
2024/04/15 13:37:34;;;;;;;30.02;27.40;;;;;;;;;;4437293;32;19971;-66
2024/04/15 13:39:59;;;;;;;;;;;;;;;;;;4437751;32;20077;-64
2024/04/15 13:42:25;;;;;;;14.18;12.35;;;;;;;;;;4451879;32;19944;-65
2024/04/15 13:44:50;;;;;;;17.52;7.80;;;;;;;;;;4452541;32;20092;-65
2024/04/15 13:47:15;;;;;;;;;;;;;;;;;;4452529;32;20202;-65
2024/04/15 13:49:40;;;;;;;21.40;6.07;;;;;;;;;;4452020;32;19964;-66
2024/04/15 13:52:05;;;;;;;;;;;;;;;;;;4453208;32;20128;-65
2024/04/15 13:54:31;;;;;;;20.62;18.58;;;;;;;;;;4452785;32;19963;-65
2024/04/15 13:56:56;;;;;;;12.50;3.25;;;;;;;;;;4449808;32;20063;-65
2024/04/15 13:59:21;;;;;;;;;;;;;;;;;;4450835;32;20070;-66
2024/04/15 14:01:46;;;;;;;9.15;3.00;;;;;;;;;;4452489;32;19974;-66
2024/04/15 14:04:14;;;;;;;10.38;2.92;;;;;;;;;;4450341;32;20088;-65
2024/04/15 14:06:39;;;;;;;11.88;2.53;;;;;;;;;;4450529;32;20388;-65
2024/04/15 14:09:04;;;;;;;;;;;;;;;;;;4450599;32;20022;-66
2024/04/15 14:11:29;;;;;;;11.88;2.37;;;;;;;;;;4438160;32;19959;-65
2024/04/15 14:13:54;;;;;;;12.73;2.20;;;;;;;;;;4436683;32;20055;-64
2024/04/15 14:16:20;;;;;;;10.82;2.15;;;;;;;;;;4435425;32;20064;-65
2024/04/15 14:18:46;;;;;;;10.55;2.37;;;;;;;;;;4434029;32;20056;-64
2024/04/15 14:21:11;;;;;;;11.05;2.42;;;;;;;;;;4433670;32;20130;-64
2024/04/15 14:23:36;;;;;;;8.52;2.83;;;;;;;;;;4436641;32;20021;-65
2024/04/15 14:26:01;;;;;;;12.07;2.67;;;;;;;;;;4434964;32;20439;-64
2024/04/15 14:28:26;;;;;;;13.50;2.17;;;;;;;;;;4436365;32;20025;-63
2024/04/15 14:30:52;;;;;;;14.52;2.55;;;;;;;;;;4435158;32;20025;-67
2024/04/15 14:33:17;;;;;;;11.52;3.53;;;;;;;;;;4434452;32;20087;-64
2024/04/15 14:35:42;;;;;;;9.50;4.18;;;;;;;;;;4434713;32;20369;-64
2024/04/15 14:38:10;;;;;;;9.13;3.42;;;;;;;;;;4419762;32;20041;-64
2024/04/15 14:40:35;;;;;;;9.68;2.60;;;;;;;;;;4445408;32;20056;-64
2024/04/15 14:43:00;;;;;;;9.38;1.92;;;;;;;;;;4436212;32;20072;-62